MAS194 WMKK-VABB
Flight info
| Callsign | MAS194 |
|---|---|
| Flight time | N/A |
| Altitude | 40000 |
| Route | IBUKU1A IBUKU Y504 GUNIP N571 AGELA DCT MOLGO MOLGO2A |
| Aircraft | B772/H-SDE2E3FGHIJ5LORVWXY/LB1D1 |
Departure
| Time | 2026-05-06 08:35 |
|---|---|
| Airport | Kuala Lumpur International Airport (WMKK) |
Arrival
| Time | N/A |
|---|---|
| Airport | Chhatrapati Shivaji Maharaj International Airport (VABB) |
| Time | Latitude | Longitude | Altitude | Speed | Heading |
|---|---|---|---|---|---|
| 2026-05-06 08:28 | 2.74845 | 101.71584 | 66 ft | 0 kts | 326° |
| 2026-05-06 08:29 | 2.74836 | 101.71590 | 66 ft | 4 kts | 326° |
| 2026-05-06 08:30 | 2.74818 | 101.71602 | 66 ft | 4 kts | 326° |
| 2026-05-06 08:30 | 2.74797 | 101.71616 | 66 ft | 4 kts | 339° |
| 2026-05-06 08:30 | 2.74781 | 101.71618 | 66 ft | 4 kts | 65° |
| 2026-05-06 08:30 | 2.74776 | 101.71593 | 66 ft | 4 kts | 79° |
| 2026-05-06 08:31 | 2.74774 | 101.71583 | 77 ft | 4 kts | 66° |
| 2026-05-06 08:31 | 2.74771 | 101.71577 | 69 ft | 0 kts | 56° |
| 2026-05-06 08:33 | 2.74779 | 101.71589 | 77 ft | 7 kts | 56° |
| 2026-05-06 08:33 | 2.74825 | 101.71657 | 67 ft | 16 kts | 56° |
| 2026-05-06 08:33 | 2.74892 | 101.71758 | 70 ft | 18 kts | 56° |
| 2026-05-06 08:33 | 2.74958 | 101.71861 | 86 ft | 18 kts | 56° |
| 2026-05-06 08:34 | 2.75027 | 101.71961 | 87 ft | 18 kts | 56° |
| 2026-05-06 08:34 | 2.75150 | 101.71997 | 84 ft | 17 kts | 327° |
| 2026-05-06 08:34 | 2.75413 | 101.71820 | 84 ft | 82 kts | 326° |
| 2026-05-06 08:35 | 2.76084 | 101.71370 | 65 ft | 149 kts | 326° |
| 2026-05-06 08:35 | 2.77091 | 101.70697 | 330 ft | 183 kts | 326° |
| 2026-05-06 08:35 | 2.78132 | 101.69992 | 1202 ft | 180 kts | 322° |
| 2026-05-06 08:35 | 2.79047 | 101.69142 | 1910 ft | 186 kts | 309° |
| 2026-05-06 08:36 | 2.79956 | 101.68098 | 2147 ft | 211 kts | 308° |
| 2026-05-06 08:36 | 2.80960 | 101.66914 | 2361 ft | 237 kts | 309° |
| 2026-05-06 08:36 | 2.82094 | 101.65593 | 2626 ft | 261 kts | 309° |
| 2026-05-06 08:36 | 2.83291 | 101.64203 | 3271 ft | 268 kts | 310° |
| 2026-05-06 08:37 | 2.84530 | 101.62774 | 3964 ft | 273 kts | 311° |
| 2026-05-06 08:37 | 2.85787 | 101.61331 | 4684 ft | 276 kts | 312° |
| 2026-05-06 08:37 | 2.87053 | 101.59881 | 5413 ft | 278 kts | 312° |
| 2026-05-06 08:37 | 2.88337 | 101.58416 | 6117 ft | 281 kts | 312° |
| 2026-05-06 08:38 | 2.89632 | 101.56939 | 6759 ft | 284 kts | 312° |
| 2026-05-06 08:38 | 2.90942 | 101.55447 | 7387 ft | 287 kts | 312° |
| 2026-05-06 08:38 | 2.92248 | 101.53960 | 8013 ft | 290 kts | 312° |
| 2026-05-06 08:38 | 2.93590 | 101.52435 | 8655 ft | 293 kts | 312° |
| 2026-05-06 08:39 | 2.94942 | 101.50897 | 9267 ft | 296 kts | 311° |
| 2026-05-06 08:39 | 2.96315 | 101.49337 | 9868 ft | 299 kts | 311° |
| 2026-05-06 08:39 | 2.97703 | 101.47759 | 10346 ft | 308 kts | 312° |
| 2026-05-06 08:39 | 2.99177 | 101.46086 | 10513 ft | 332 kts | 312° |
| 2026-05-06 08:40 | 3.00753 | 101.44295 | 10682 ft | 355 kts | 312° |
| 2026-05-06 08:40 | 3.02444 | 101.42375 | 10871 ft | 378 kts | 312° |
| 2026-05-06 08:40 | 3.04208 | 101.40370 | 11410 ft | 390 kts | 312° |
| 2026-05-06 08:40 | 3.06023 | 101.38305 | 12101 ft | 398 kts | 312° |
| 2026-05-06 08:41 | 3.07859 | 101.36215 | 12960 ft | 402 kts | 312° |
| 2026-05-06 08:41 | 3.09721 | 101.34097 | 13803 ft | 407 kts | 312° |
| 2026-05-06 08:41 | 3.11605 | 101.31955 | 14553 ft | 412 kts | 312° |
| 2026-05-06 08:41 | 3.13517 | 101.29781 | 15312 ft | 418 kts | 312° |
| 2026-05-06 08:42 | 3.15448 | 101.27586 | 16079 ft | 423 kts | 312° |
| 2026-05-06 08:42 | 3.17375 | 101.25394 | 16854 ft | 428 kts | 312° |
| 2026-05-06 08:42 | 3.19354 | 101.23144 | 17644 ft | 433 kts | 312° |
| 2026-05-06 08:42 | 3.21357 | 101.20867 | 18357 ft | 439 kts | 312° |
| 2026-05-06 08:43 | 3.23385 | 101.18562 | 19024 ft | 443 kts | 312° |
| 2026-05-06 08:43 | 3.25431 | 101.16235 | 19713 ft | 448 kts | 312° |
| 2026-05-06 08:43 | 3.27505 | 101.13876 | 20376 ft | 453 kts | 312° |
| 2026-05-06 08:43 | 3.29594 | 101.11499 | 21047 ft | 457 kts | 312° |
| 2026-05-06 08:44 | 3.31707 | 101.09096 | 21711 ft | 462 kts | 312° |
| 2026-05-06 08:44 | 3.33842 | 101.06667 | 22334 ft | 466 kts | 312° |
| 2026-05-06 08:44 | 3.36000 | 101.04212 | 22917 ft | 471 kts | 312° |
| 2026-05-06 08:44 | 3.38173 | 101.01740 | 23469 ft | 475 kts | 312° |
| 2026-05-06 08:45 | 3.40362 | 100.99248 | 23937 ft | 479 kts | 312° |
| 2026-05-06 08:45 | 3.42570 | 100.96735 | 24435 ft | 481 kts | 312° |
| 2026-05-06 08:45 | 3.44781 | 100.94219 | 24924 ft | 483 kts | 312° |
| 2026-05-06 08:45 | 3.47010 | 100.91682 | 25388 ft | 486 kts | 312° |
| 2026-05-06 08:46 | 3.49245 | 100.89138 | 25824 ft | 489 kts | 312° |
| 2026-05-06 08:46 | 3.51502 | 100.86568 | 26251 ft | 492 kts | 312° |
| 2026-05-06 08:46 | 3.53737 | 100.84024 | 26647 ft | 494 kts | 312° |
| 2026-05-06 08:46 | 3.56042 | 100.81399 | 27044 ft | 497 kts | 312° |
| 2026-05-06 08:47 | 3.58302 | 100.78825 | 27428 ft | 500 kts | 311° |
| 2026-05-06 08:47 | 3.60505 | 100.76121 | 27784 ft | 502 kts | 307° |
| 2026-05-06 08:47 | 3.62586 | 100.73294 | 28094 ft | 505 kts | 306° |
| 2026-05-06 08:47 | 3.64648 | 100.70437 | 28424 ft | 507 kts | 306° |
| 2026-05-06 08:48 | 3.66711 | 100.67561 | 28742 ft | 509 kts | 306° |
| 2026-05-06 08:48 | 3.68785 | 100.64675 | 29031 ft | 511 kts | 306° |
| 2026-05-06 08:48 | 3.70870 | 100.61785 | 29313 ft | 513 kts | 306° |
| 2026-05-06 08:48 | 3.72967 | 100.58890 | 29568 ft | 514 kts | 306° |
| 2026-05-06 08:49 | 3.75079 | 100.55982 | 29807 ft | 516 kts | 306° |
| 2026-05-06 08:49 | 3.77196 | 100.53073 | 30068 ft | 516 kts | 306° |
| 2026-05-06 08:49 | 3.79304 | 100.50178 | 30366 ft | 514 kts | 306° |
| 2026-05-06 08:49 | 3.81383 | 100.47322 | 30666 ft | 513 kts | 306° |
| 2026-05-06 08:50 | 3.83487 | 100.44432 | 30968 ft | 513 kts | 306° |
| 2026-05-06 08:50 | 3.85585 | 100.41548 | 31255 ft | 512 kts | 306° |
| 2026-05-06 08:50 | 3.87683 | 100.38664 | 31553 ft | 511 kts | 306° |
| 2026-05-06 08:50 | 3.89772 | 100.35791 | 31857 ft | 510 kts | 306° |
| 2026-05-06 08:51 | 3.91860 | 100.32919 | 32148 ft | 509 kts | 306° |
| 2026-05-06 08:51 | 3.93941 | 100.30056 | 32455 ft | 508 kts | 306° |
| 2026-05-06 08:51 | 3.96024 | 100.27190 | 32745 ft | 508 kts | 306° |
| 2026-05-06 08:51 | 3.98102 | 100.24330 | 33038 ft | 507 kts | 306° |
| 2026-05-06 08:52 | 4.00174 | 100.21480 | 33322 ft | 506 kts | 306° |
| 2026-05-06 08:52 | 4.02249 | 100.18624 | 33596 ft | 506 kts | 306° |
| 2026-05-06 08:52 | 4.04295 | 100.15809 | 33855 ft | 506 kts | 306° |
| 2026-05-06 08:52 | 4.06364 | 100.12961 | 34093 ft | 506 kts | 306° |
| 2026-05-06 08:53 | 4.08435 | 100.10110 | 34325 ft | 505 kts | 306° |
| 2026-05-06 08:53 | 4.10504 | 100.07261 | 34542 ft | 505 kts | 306° |
| 2026-05-06 08:53 | 4.12572 | 100.04414 | 34770 ft | 505 kts | 306° |
| 2026-05-06 08:53 | 4.14642 | 100.01564 | 35018 ft | 504 kts | 306° |
| 2026-05-06 08:54 | 4.16704 | 99.98724 | 35267 ft | 504 kts | 306° |
| 2026-05-06 08:54 | 4.18765 | 99.95886 | 35510 ft | 503 kts | 306° |
| 2026-05-06 08:54 | 4.20820 | 99.93055 | 35777 ft | 502 kts | 306° |
| 2026-05-06 08:54 | 4.22874 | 99.90226 | 36055 ft | 501 kts | 306° |
| 2026-05-06 08:55 | 4.24921 | 99.87405 | 36350 ft | 500 kts | 306° |
| 2026-05-06 08:55 | 4.26945 | 99.84616 | 36624 ft | 499 kts | 306° |
| 2026-05-06 08:55 | 4.28982 | 99.81810 | 36904 ft | 498 kts | 306° |
| 2026-05-06 08:55 | 4.31020 | 99.79001 | 37186 ft | 497 kts | 306° |
| 2026-05-06 08:56 | 4.33048 | 99.76205 | 37502 ft | 495 kts | 306° |
| 2026-05-06 08:56 | 4.35073 | 99.73415 | 37794 ft | 494 kts | 306° |
| 2026-05-06 08:56 | 4.37091 | 99.70632 | 38088 ft | 493 kts | 306° |
| 2026-05-06 08:56 | 4.39106 | 99.67854 | 38374 ft | 492 kts | 306° |
| 2026-05-06 08:57 | 4.41112 | 99.65087 | 38608 ft | 491 kts | 306° |
| 2026-05-06 08:57 | 4.43117 | 99.62322 | 38827 ft | 490 kts | 306° |
| 2026-05-06 08:57 | 4.45122 | 99.59556 | 39004 ft | 490 kts | 306° |
| 2026-05-06 08:57 | 4.47121 | 99.56799 | 39197 ft | 489 kts | 306° |
| 2026-05-06 08:58 | 4.48442 | 99.54976 | 39318 ft | 489 kts | 306° |
| 2026-05-06 08:58 | 4.50489 | 99.52251 | 39502 ft | 488 kts | 310° |
| 2026-05-06 08:58 | 4.52691 | 99.49651 | 39662 ft | 489 kts | 311° |
| 2026-05-06 08:59 | 4.57195 | 99.44517 | 39761 ft | 491 kts | 312° |
| 2026-05-06 08:59 | 4.61710 | 99.39388 | 39775 ft | 489 kts | 311° |
| 2026-05-06 09:00 | 4.66153 | 99.34300 | 39793 ft | 487 kts | 311° |
| 2026-05-06 09:00 | 4.70614 | 99.29167 | 39798 ft | 486 kts | 311° |
| 2026-05-06 09:01 | 4.75053 | 99.24053 | 39791 ft | 486 kts | 311° |
| 2026-05-06 09:01 | 4.79491 | 99.18941 | 39793 ft | 486 kts | 311° |
| 2026-05-06 09:02 | 4.83934 | 99.13823 | 39793 ft | 486 kts | 311° |
| 2026-05-06 09:02 | 4.88383 | 99.08698 | 39791 ft | 487 kts | 311° |
| 2026-05-06 09:03 | 4.92825 | 99.03580 | 39790 ft | 487 kts | 311° |
| 2026-05-06 09:03 | 4.97275 | 98.98451 | 39790 ft | 487 kts | 311° |
| 2026-05-06 09:04 | 5.01701 | 98.93349 | 39795 ft | 487 kts | 312° |
| 2026-05-06 09:04 | 5.06154 | 98.88215 | 39790 ft | 488 kts | 312° |
| 2026-05-06 09:05 | 5.10611 | 98.83074 | 39788 ft | 488 kts | 312° |
| 2026-05-06 09:05 | 5.15069 | 98.77932 | 39791 ft | 488 kts | 311° |
| 2026-05-06 09:06 | 5.19522 | 98.72793 | 39796 ft | 488 kts | 311° |
| 2026-05-06 09:06 | 5.23940 | 98.67695 | 39791 ft | 487 kts | 311° |
| 2026-05-06 09:07 | 5.28394 | 98.62553 | 39790 ft | 487 kts | 311° |
| 2026-05-06 09:07 | 5.32836 | 98.57425 | 39794 ft | 487 kts | 311° |
| 2026-05-06 09:08 | 5.37282 | 98.52289 | 39780 ft | 487 kts | 311° |
| 2026-05-06 09:08 | 5.41724 | 98.47159 | 39790 ft | 487 kts | 311° |
| 2026-05-06 09:09 | 5.46171 | 98.42020 | 39797 ft | 487 kts | 311° |
| 2026-05-06 09:09 | 5.50614 | 98.36885 | 39792 ft | 487 kts | 311° |
| 2026-05-06 09:10 | 5.55055 | 98.31751 | 39778 ft | 487 kts | 311° |
| 2026-05-06 09:10 | 5.59496 | 98.26616 | 39781 ft | 487 kts | 311° |
| 2026-05-06 09:11 | 5.63915 | 98.21505 | 39797 ft | 488 kts | 311° |
| 2026-05-06 09:11 | 5.68362 | 98.16359 | 39797 ft | 488 kts | 311° |
| 2026-05-06 09:12 | 5.72813 | 98.11208 | 39791 ft | 489 kts | 311° |
| 2026-05-06 09:12 | 5.77273 | 98.06046 | 39779 ft | 489 kts | 311° |
| 2026-05-06 09:13 | 5.81739 | 98.00875 | 39777 ft | 490 kts | 311° |
| 2026-05-06 09:13 | 5.86202 | 97.95706 | 39797 ft | 490 kts | 311° |
| 2026-05-06 09:14 | 5.90676 | 97.90523 | 39796 ft | 491 kts | 311° |
| 2026-05-06 09:14 | 5.95148 | 97.85340 | 39783 ft | 491 kts | 311° |
| 2026-05-06 09:15 | 5.99623 | 97.80153 | 39784 ft | 491 kts | 311° |
| 2026-05-06 09:15 | 6.04102 | 97.74959 | 39784 ft | 491 kts | 311° |
| 2026-05-06 09:16 | 6.08546 | 97.69805 | 39786 ft | 491 kts | 311° |
| 2026-05-06 09:16 | 6.13046 | 97.64584 | 39800 ft | 491 kts | 311° |
| 2026-05-06 09:17 | 6.17151 | 97.59178 | 39801 ft | 490 kts | 300° |
| 2026-05-06 09:17 | 6.19990 | 97.52965 | 39779 ft | 489 kts | 287° |
| 2026-05-06 09:18 | 6.21911 | 97.46410 | 39786 ft | 489 kts | 285° |
| 2026-05-06 09:18 | 6.23767 | 97.39845 | 39784 ft | 489 kts | 286° |
| 2026-05-06 09:19 | 6.25667 | 97.33284 | 39796 ft | 489 kts | 286° |
| 2026-05-06 09:19 | 6.27598 | 97.26722 | 39781 ft | 489 kts | 286° |
| 2026-05-06 09:20 | 6.29530 | 97.20174 | 39784 ft | 489 kts | 286° |
| 2026-05-06 09:20 | 6.31461 | 97.13622 | 39782 ft | 489 kts | 286° |
| 2026-05-06 09:21 | 6.33390 | 97.07068 | 39783 ft | 489 kts | 286° |
| 2026-05-06 09:21 | 6.35304 | 97.00559 | 39783 ft | 489 kts | 286° |
| 2026-05-06 09:22 | 6.37230 | 96.94005 | 39784 ft | 489 kts | 286° |
| 2026-05-06 09:22 | 6.39158 | 96.87442 | 39784 ft | 489 kts | 286° |
| 2026-05-06 09:23 | 6.41087 | 96.80870 | 39795 ft | 490 kts | 286° |
| 2026-05-06 09:23 | 6.43018 | 96.74292 | 39784 ft | 491 kts | 286° |
| 2026-05-06 09:24 | 6.44949 | 96.67707 | 39784 ft | 491 kts | 286° |
| 2026-05-06 09:24 | 6.46881 | 96.61117 | 39792 ft | 491 kts | 286° |
| 2026-05-06 09:25 | 6.48812 | 96.54524 | 39792 ft | 492 kts | 286° |
| 2026-05-06 09:25 | 6.50904 | 96.48019 | 39796 ft | 492 kts | 292° |
| 2026-05-06 09:26 | 6.53858 | 96.41827 | 39781 ft | 492 kts | 297° |
| 2026-05-06 09:26 | 6.56947 | 96.35680 | 39797 ft | 492 kts | 297° |
| 2026-05-06 09:27 | 6.60003 | 96.29511 | 39782 ft | 493 kts | 296° |
| 2026-05-06 09:27 | 6.63033 | 96.23321 | 39781 ft | 493 kts | 296° |
| 2026-05-06 09:28 | 6.66060 | 96.17123 | 39785 ft | 494 kts | 296° |
| 2026-05-06 09:28 | 6.69093 | 96.10917 | 39782 ft | 494 kts | 296° |
| 2026-05-06 09:29 | 6.72132 | 96.04701 | 39783 ft | 495 kts | 296° |
| 2026-05-06 09:29 | 6.75152 | 95.98521 | 39786 ft | 496 kts | 296° |
| 2026-05-06 09:30 | 6.78202 | 95.92292 | 39782 ft | 496 kts | 296° |
| 2026-05-06 09:30 | 6.81260 | 95.86063 | 39784 ft | 497 kts | 296° |
| 2026-05-06 09:31 | 6.84317 | 95.79830 | 39787 ft | 497 kts | 296° |
| 2026-05-06 09:31 | 6.87381 | 95.73578 | 39786 ft | 498 kts | 296° |
| 2026-05-06 09:32 | 6.90441 | 95.67331 | 39781 ft | 498 kts | 296° |
| 2026-05-06 09:32 | 6.93504 | 95.61073 | 39783 ft | 498 kts | 296° |
| 2026-05-06 09:33 | 6.96553 | 95.54843 | 39792 ft | 499 kts | 296° |
| 2026-05-06 09:33 | 6.99618 | 95.48576 | 39786 ft | 499 kts | 296° |
| 2026-05-06 09:34 | 7.02685 | 95.42303 | 39785 ft | 499 kts | 296° |
| 2026-05-06 09:34 | 7.05749 | 95.36035 | 39785 ft | 499 kts | 296° |
| 2026-05-06 09:35 | 7.08795 | 95.29801 | 39787 ft | 499 kts | 296° |
| 2026-05-06 09:35 | 7.11854 | 95.23536 | 39785 ft | 498 kts | 296° |
| 2026-05-06 09:36 | 7.14910 | 95.17277 | 39788 ft | 498 kts | 296° |
| 2026-05-06 09:36 | 7.17961 | 95.11025 | 39787 ft | 497 kts | 296° |
| 2026-05-06 09:37 | 7.21011 | 95.04770 | 39785 ft | 496 kts | 296° |
| 2026-05-06 09:37 | 7.24054 | 94.98529 | 39787 ft | 496 kts | 296° |
| 2026-05-06 09:38 | 7.27094 | 94.92291 | 39785 ft | 496 kts | 296° |
| 2026-05-06 09:38 | 7.30113 | 94.86094 | 39786 ft | 496 kts | 296° |
| 2026-05-06 09:39 | 7.33155 | 94.79847 | 39788 ft | 496 kts | 296° |
| 2026-05-06 09:39 | 7.36195 | 94.73602 | 39788 ft | 497 kts | 296° |
| 2026-05-06 09:40 | 7.39241 | 94.67342 | 39784 ft | 497 kts | 296° |
| 2026-05-06 09:40 | 7.43811 | 94.57944 | 39787 ft | 498 kts | 296° |
| 2026-05-06 09:41 | 7.46841 | 94.51707 | 39787 ft | 499 kts | 296° |
| 2026-05-06 09:41 | 7.49902 | 94.45405 | 39787 ft | 500 kts | 296° |
| 2026-05-06 09:42 | 7.52935 | 94.39085 | 39783 ft | 501 kts | 295° |
| 2026-05-06 09:42 | 7.55793 | 94.32677 | 39789 ft | 501 kts | 294° |
| 2026-05-06 09:43 | 7.58613 | 94.26241 | 39785 ft | 502 kts | 294° |
| 2026-05-06 09:43 | 7.61458 | 94.19808 | 39786 ft | 503 kts | 294° |
| 2026-05-06 09:44 | 7.64303 | 94.13416 | 39788 ft | 503 kts | 294° |
| 2026-05-06 09:44 | 7.67163 | 94.06995 | 39785 ft | 502 kts | 294° |
| 2026-05-06 09:45 | 7.70023 | 94.00569 | 39797 ft | 501 kts | 294° |
| 2026-05-06 09:45 | 7.72874 | 93.94158 | 39783 ft | 500 kts | 294° |
| 2026-05-06 09:46 | 7.75717 | 93.87760 | 39783 ft | 499 kts | 294° |
| 2026-05-06 09:46 | 7.78553 | 93.81375 | 39798 ft | 498 kts | 294° |
| 2026-05-06 09:47 | 7.80900 | 93.76088 | 39782 ft | 497 kts | 294° |
| 2026-05-06 09:47 | 7.83723 | 93.69727 | 39780 ft | 496 kts | 294° |
| 2026-05-06 09:48 | 7.86540 | 93.63377 | 39784 ft | 496 kts | 294° |
| 2026-05-06 09:48 | 7.89354 | 93.57029 | 39792 ft | 496 kts | 294° |
| 2026-05-06 09:49 | 7.92167 | 93.50680 | 39794 ft | 495 kts | 294° |
| 2026-05-06 09:49 | 7.94992 | 93.44340 | 39782 ft | 495 kts | 294° |
| 2026-05-06 09:50 | 7.97832 | 93.38010 | 39777 ft | 495 kts | 294° |
| 2026-05-06 09:50 | 8.00653 | 93.31716 | 39794 ft | 495 kts | 294° |
| 2026-05-06 09:51 | 8.03489 | 93.25377 | 39793 ft | 495 kts | 294° |
| 2026-05-06 09:51 | 8.06336 | 93.19009 | 39777 ft | 495 kts | 294° |
| 2026-05-06 09:52 | 8.09150 | 93.12710 | 39776 ft | 495 kts | 294° |
| 2026-05-06 09:52 | 8.11980 | 93.06371 | 39785 ft | 495 kts | 294° |
| 2026-05-06 09:53 | 8.14813 | 93.00025 | 39789 ft | 495 kts | 294° |
| 2026-05-06 09:53 | 8.17643 | 92.93680 | 39790 ft | 496 kts | 294° |
| 2026-05-06 09:54 | 8.20472 | 92.87335 | 39785 ft | 496 kts | 294° |
| 2026-05-06 09:54 | 8.23284 | 92.81026 | 39788 ft | 496 kts | 294° |
| 2026-05-06 09:55 | 8.26117 | 92.74666 | 39786 ft | 496 kts | 294° |
| 2026-05-06 09:55 | 8.28946 | 92.68312 | 39786 ft | 496 kts | 294° |
| 2026-05-06 09:56 | 8.31775 | 92.61954 | 39787 ft | 496 kts | 294° |
| 2026-05-06 09:56 | 8.34608 | 92.55587 | 39785 ft | 497 kts | 294° |
| 2026-05-06 09:57 | 8.37432 | 92.49233 | 39787 ft | 497 kts | 294° |
| 2026-05-06 09:57 | 8.40269 | 92.42848 | 39785 ft | 497 kts | 294° |
| 2026-05-06 09:58 | 8.43079 | 92.36521 | 39781 ft | 497 kts | 294° |
| 2026-05-06 09:58 | 8.45927 | 92.30105 | 39782 ft | 497 kts | 295° |
| 2026-05-06 09:59 | 8.48736 | 92.23772 | 39783 ft | 497 kts | 295° |
| 2026-05-06 09:59 | 8.51566 | 92.17389 | 39789 ft | 497 kts | 295° |
| 2026-05-06 10:00 | 8.54390 | 92.11017 | 39784 ft | 497 kts | 295° |
| 2026-05-06 10:00 | 8.57216 | 92.04636 | 39784 ft | 497 kts | 295° |
| 2026-05-06 10:01 | 8.60050 | 91.98256 | 39786 ft | 497 kts | 295° |
| 2026-05-06 10:01 | 8.63002 | 91.91945 | 39786 ft | 497 kts | 296° |
| 2026-05-06 10:02 | 8.66003 | 91.85659 | 39787 ft | 497 kts | 296° |
| 2026-05-06 10:02 | 8.68992 | 91.79368 | 39778 ft | 496 kts | 296° |
| 2026-05-06 10:03 | 8.71963 | 91.73069 | 39785 ft | 496 kts | 296° |
| 2026-05-06 10:03 | 8.74912 | 91.66804 | 39793 ft | 496 kts | 296° |
| 2026-05-06 10:04 | 8.77877 | 91.60501 | 39785 ft | 496 kts | 296° |
| 2026-05-06 10:04 | 8.80843 | 91.54193 | 39783 ft | 496 kts | 296° |
| 2026-05-06 10:05 | 8.83805 | 91.47892 | 39785 ft | 496 kts | 296° |
| 2026-05-06 10:05 | 8.86770 | 91.41581 | 39786 ft | 496 kts | 296° |
| 2026-05-06 10:06 | 8.89731 | 91.35276 | 39783 ft | 496 kts | 296° |
| 2026-05-06 10:06 | 8.92691 | 91.28971 | 39789 ft | 496 kts | 296° |
| 2026-05-06 10:07 | 8.95655 | 91.22652 | 39785 ft | 497 kts | 296° |
| 2026-05-06 10:07 | 8.98611 | 91.16347 | 39785 ft | 497 kts | 296° |
| 2026-05-06 10:08 | 9.01554 | 91.10069 | 39791 ft | 497 kts | 296° |
| 2026-05-06 10:08 | 9.04509 | 91.03759 | 39787 ft | 496 kts | 296° |
| 2026-05-06 10:09 | 9.07466 | 90.97442 | 39788 ft | 496 kts | 296° |
| 2026-05-06 10:09 | 9.10418 | 90.91133 | 39788 ft | 496 kts | 296° |
| 2026-05-06 10:10 | 9.13371 | 90.84820 | 39782 ft | 495 kts | 296° |
| 2026-05-06 10:10 | 9.16317 | 90.78516 | 39789 ft | 495 kts | 296° |
| 2026-05-06 10:11 | 9.19260 | 90.72216 | 39791 ft | 494 kts | 296° |
| 2026-05-06 10:11 | 9.22177 | 90.65969 | 39784 ft | 494 kts | 296° |
| 2026-05-06 10:12 | 9.25109 | 90.59685 | 39787 ft | 493 kts | 296° |
| 2026-05-06 10:12 | 9.28036 | 90.53410 | 39790 ft | 493 kts | 295° |
| 2026-05-06 10:13 | 9.30961 | 90.47134 | 39789 ft | 493 kts | 295° |
| 2026-05-06 10:13 | 9.33887 | 90.40853 | 39789 ft | 492 kts | 295° |
| 2026-05-06 10:14 | 9.36807 | 90.34582 | 39788 ft | 492 kts | 295° |
| 2026-05-06 10:14 | 9.39727 | 90.28308 | 39790 ft | 492 kts | 295° |
| 2026-05-06 10:15 | 9.42626 | 90.22075 | 39791 ft | 492 kts | 295° |
| 2026-05-06 10:15 | 9.45543 | 90.15800 | 39791 ft | 492 kts | 295° |
| 2026-05-06 10:16 | 9.48462 | 90.09518 | 39793 ft | 492 kts | 295° |
| 2026-05-06 10:16 | 9.51373 | 90.03249 | 39790 ft | 492 kts | 295° |
| 2026-05-06 10:17 | 9.54285 | 89.96975 | 39793 ft | 492 kts | 295° |
| 2026-05-06 10:17 | 9.57195 | 89.90702 | 39792 ft | 492 kts | 295° |
| 2026-05-06 10:18 | 9.60102 | 89.84431 | 39794 ft | 492 kts | 295° |
| 2026-05-06 10:18 | 9.63007 | 89.78161 | 39794 ft | 492 kts | 295° |
| 2026-05-06 10:19 | 9.65915 | 89.71882 | 39789 ft | 491 kts | 295° |
| 2026-05-06 10:19 | 9.68819 | 89.65607 | 39792 ft | 491 kts | 295° |
| 2026-05-06 10:20 | 9.71717 | 89.59341 | 39791 ft | 491 kts | 295° |
| 2026-05-06 10:20 | 9.74616 | 89.53070 | 39795 ft | 491 kts | 295° |
| 2026-05-06 10:21 | 9.77492 | 89.46845 | 39780 ft | 490 kts | 295° |
| 2026-05-06 10:21 | 9.80386 | 89.40578 | 39795 ft | 490 kts | 295° |
| 2026-05-06 10:22 | 9.83273 | 89.34320 | 39796 ft | 490 kts | 295° |
| 2026-05-06 10:22 | 9.86159 | 89.28064 | 39798 ft | 489 kts | 295° |
| 2026-05-06 10:23 | 9.89041 | 89.21811 | 39799 ft | 489 kts | 295° |
| 2026-05-06 10:23 | 9.91921 | 89.15560 | 39795 ft | 489 kts | 295° |
| 2026-05-06 10:24 | 9.94796 | 89.09315 | 39798 ft | 488 kts | 295° |
| 2026-05-06 10:24 | 9.97673 | 89.03063 | 39784 ft | 489 kts | 295° |
| 2026-05-06 10:25 | 10.00547 | 88.96815 | 39782 ft | 489 kts | 295° |
| 2026-05-06 10:25 | 10.03422 | 88.90559 | 39797 ft | 489 kts | 295° |
| 2026-05-06 10:26 | 10.06280 | 88.84338 | 39800 ft | 489 kts | 295° |
| 2026-05-06 10:26 | 10.09153 | 88.78079 | 39798 ft | 490 kts | 295° |
| 2026-05-06 10:27 | 10.12029 | 88.71809 | 39787 ft | 490 kts | 295° |
| 2026-05-06 10:27 | 10.14908 | 88.65530 | 39795 ft | 490 kts | 295° |
| 2026-05-06 10:28 | 10.17785 | 88.59250 | 39800 ft | 491 kts | 295° |
| 2026-05-06 10:28 | 10.20662 | 88.52970 | 39800 ft | 491 kts | 295° |
| 2026-05-06 10:29 | 10.23698 | 88.46759 | 39801 ft | 491 kts | 297° |
| 2026-05-06 10:29 | 10.26861 | 88.40612 | 39804 ft | 491 kts | 297° |
| 2026-05-06 10:30 | 10.29996 | 88.34494 | 39790 ft | 491 kts | 297° |
| 2026-05-06 10:30 | 10.33120 | 88.28330 | 39788 ft | 491 kts | 297° |
| 2026-05-06 10:31 | 10.36233 | 88.22155 | 39792 ft | 490 kts | 297° |
| 2026-05-06 10:31 | 10.39339 | 88.15987 | 39806 ft | 490 kts | 297° |
| 2026-05-06 10:32 | 10.42449 | 88.09809 | 39804 ft | 490 kts | 297° |
| 2026-05-06 10:32 | 10.45554 | 88.03642 | 39800 ft | 490 kts | 297° |
| 2026-05-06 10:33 | 10.48132 | 87.98518 | 39801 ft | 490 kts | 297° |
| 2026-05-06 10:33 | 10.51743 | 87.91338 | 39793 ft | 490 kts | 297° |
| 2026-05-06 10:34 | 10.54324 | 87.86203 | 39804 ft | 490 kts | 297° |
| 2026-05-06 10:34 | 10.57428 | 87.80024 | 39798 ft | 491 kts | 297° |
| 2026-05-06 10:35 | 10.60538 | 87.73829 | 39790 ft | 491 kts | 296° |
| 2026-05-06 10:35 | 10.63641 | 87.67643 | 39809 ft | 491 kts | 296° |
| 2026-05-06 10:36 | 10.66741 | 87.61461 | 39798 ft | 491 kts | 296° |
| 2026-05-06 10:36 | 10.69825 | 87.55307 | 39799 ft | 491 kts | 296° |
| 2026-05-06 10:37 | 10.72926 | 87.49114 | 39800 ft | 491 kts | 296° |
| 2026-05-06 10:37 | 10.76026 | 87.42922 | 39799 ft | 491 kts | 296° |
| 2026-05-06 10:38 | 10.79124 | 87.36728 | 39802 ft | 491 kts | 296° |
| 2026-05-06 10:38 | 10.82203 | 87.30570 | 39801 ft | 491 kts | 296° |
| 2026-05-06 10:39 | 10.85296 | 87.24377 | 39801 ft | 491 kts | 296° |
| 2026-05-06 10:39 | 10.88389 | 87.18184 | 39801 ft | 491 kts | 296° |
| 2026-05-06 10:40 | 10.91479 | 87.11990 | 39800 ft | 490 kts | 296° |
| 2026-05-06 10:40 | 10.94566 | 87.05801 | 39801 ft | 490 kts | 296° |
| 2026-05-06 10:41 | 10.97650 | 86.99613 | 39796 ft | 490 kts | 296° |
| 2026-05-06 10:41 | 11.00729 | 86.93432 | 39801 ft | 490 kts | 296° |
| 2026-05-06 10:42 | 11.03790 | 86.87282 | 39798 ft | 490 kts | 296° |
| 2026-05-06 10:42 | 11.06877 | 86.81077 | 39799 ft | 490 kts | 296° |
| 2026-05-06 10:43 | 11.09956 | 86.74884 | 39797 ft | 490 kts | 296° |
| 2026-05-06 10:44 | 11.14574 | 86.65588 | 39799 ft | 490 kts | 296° |
| 2026-05-06 10:44 | 11.17651 | 86.59390 | 39798 ft | 490 kts | 296° |
| 2026-05-06 10:45 | 11.20707 | 86.53229 | 39800 ft | 490 kts | 296° |
| 2026-05-06 10:45 | 11.23784 | 86.47022 | 39798 ft | 491 kts | 296° |
| 2026-05-06 10:46 | 11.26860 | 86.40815 | 39804 ft | 491 kts | 296° |
| 2026-05-06 10:46 | 11.29933 | 86.34609 | 39779 ft | 491 kts | 296° |
| 2026-05-06 10:47 | 11.33011 | 86.28389 | 39800 ft | 492 kts | 296° |
| 2026-05-06 10:47 | 11.36092 | 86.22158 | 39806 ft | 493 kts | 296° |
| 2026-05-06 10:48 | 11.39176 | 86.15916 | 39807 ft | 494 kts | 296° |
| 2026-05-06 10:48 | 11.42268 | 86.09657 | 39809 ft | 494 kts | 296° |
| 2026-05-06 10:49 | 11.45359 | 86.03394 | 39805 ft | 494 kts | 296° |
| 2026-05-06 10:49 | 11.48451 | 85.97124 | 39806 ft | 495 kts | 296° |
| 2026-05-06 10:50 | 11.51519 | 85.90901 | 39805 ft | 494 kts | 295° |
| 2026-05-06 10:50 | 11.54606 | 85.84635 | 39802 ft | 494 kts | 295° |
| 2026-05-06 10:51 | 11.57694 | 85.78361 | 39804 ft | 494 kts | 295° |
| 2026-05-06 10:51 | 11.60776 | 85.72095 | 39803 ft | 494 kts | 295° |
| 2026-05-06 10:52 | 11.63856 | 85.65831 | 39808 ft | 494 kts | 295° |
| 2026-05-06 10:52 | 11.66935 | 85.59564 | 39801 ft | 494 kts | 295° |
| 2026-05-06 10:53 | 11.70018 | 85.53285 | 39799 ft | 494 kts | 295° |
| 2026-05-06 10:53 | 11.73098 | 85.47007 | 39803 ft | 495 kts | 295° |
| 2026-05-06 10:54 | 11.76179 | 85.40724 | 39806 ft | 495 kts | 295° |